Aviation Weather


METAR: 2021/06/16 13:50 ENVA 161350Z 07004KT 360V100 CAVOK 18/06 Q1010 NOSIG RMK WIND 670FT VRB07KT

Vær-rapport

METAR for
ENVA utstedt den 16/6-2021 klokka 13:50 UTC:


Vind: ?stlig svak vind fra 70 grader med en vindhastighet på 4 knop (2 m/s, 7 km/t, Styrke 2)
Vinden er variabel mellom Nordlig , 360 grader og ?stlig , 100 grader.
Vær: God sikt og ingen lave skyer
Temperatur: 18°C med duggpunkt på 6°C. Temperatur føles som 18.0°C.
Luftfuktigheten er: 45%.
Lufttrykk: 1010 hPa.
Vær: Ingen betydelige endringer
Bemerkning:
Vind: I en høyde av 670 fot er det Variabel med en vindhastighet på 7 knop (4 m/s, 13 km/t, Styrke 3)


TAF: 2021/06/16 12:57 TAF ENVA 161100Z 1612/1712 05005KT 9999 FEW020 BKN040 PROB40 TEMPO 1619/1624 RA BECMG 1710/1712 28010KT

Vær-prognose

Værprognose for
ENVA utstedt den 16/6-2021 klokka 12:57 UTC:


Varsel er gyldig mellom den 16. klokka 12:00 og den 17. klokka 12:00
Vind: Nord?stlig svak vind fra 50 grader med en vindhastighet på 5 knop (3 m/s, 9 km/t, Styrke 2)
Sikt: Bedre enn 10 km.
Skyer: Få skyer (1/8 - 2/8) oppe i 2000 fot. (610 meter)
Skyer: Brutte skyer (5/8 - 7/8) oppe i 4000 fot. (1,219 meter)

Det er 40% sjanse for:

Mellom den 16. klokka 19:00 og den 16. klokka 24:00 vil det av og til bli:
Vær: regn

Mellom den 17. klokka 10:00 og den 17. klokka 12:00 vil det bli:
Vind: Vestlig lett bris fra 280 grader med en vindhastighet på 10 knop (5 m/s, 19 km/t, Styrke 3)